Oakvale, West Virginia
Current Conditions -  °F | °C
As of 2:52 PM on Thursday 29 Jan 2015 (Local Time) from KBLF Reporting Station
Overcast Overcast  
Wind Chill: 42°   Ceiling: 4200
Heat Index: 49°   Visibility: 10mi
Dew Point: 28°   Wind: 18mph
Humidity: 44%   Direction: 240°WSW
Pressure: 29.94"   Gusts: 25mph
Location:  37.33°N, 80.96°W
Report Text: KBLF 291952Z AUTO 24016G22KT 10SM OVC042 09/M02 A2994 RMK AO2 SLP139 T00941022
Loading
Personal Weather Stations






























Interactive Weather Map New forecast layout! Learn more

10-Day Weather Forecast

Advertisements
Track Severe Weather on mobile